D2154 / RA-89118 7700 Squawk Report (18th of October, 2019)

Aircraft SU95 Reg No. RA-89118 Age 1 years old
Model SSJ-100 Jet engines 2 First flight 26-09-18
Registered 03-01-19 Rollout 09-18 Delivered 03-01-19
Construction No. 95172 Line No. 172 Series 95B
ADSHEX 155C1E Airline name Severstal Air Company Owner N/A
Airfield based Cherepovets~Vologda~RA First tracked 2019-02-08 05:56:00

Flight history for RA-89118

Time Lat Lon Altitude Heading Speed Vertical Rate
2019-10-18 22:02:39 GMT 56.089626 37.795116 19,500 40 360 2624
2019-10-18 22:01:33 GMT 56.002029 37.660465 16,375 40 355 3264
2019-10-18 22:01:04 GMT 55.968872 37.609718 15,175 40 346 832
2019-10-18 22:00:28 GMT 55.929382 37.540035 14,050 53 316 2816
2019-10-18 22:00:10 GMT 55.916965 37.508614 13,325 54 297 3072
2019-10-18 21:59:42 GMT 55.894154 37.450417 12,025 54 297 3072
2019-10-18 21:59:34 GMT 55.884567 37.426342 11,400 54 297 3072
We lost coverage of the aircraft here for a total of 146 minutes
2019-10-18 19:33:20 GMT 58.764313 38.070019 14,575 15 341 -2240
2019-10-18 19:33:14 GMT 58.754929 38.065147 14,825 15 340 -2112
2019-10-18 19:32:55 GMT 58.726364 38.050438 15,525 14 343 -2496
2019-10-18 19:32:50 GMT 58.718758 38.046661 15,725 14 342 -2432
2019-10-18 19:32:42 GMT 58.706635 38.040691 16,050 13 344 -2368
2019-10-18 19:32:33 GMT 58.691116 38.033691 16,450 12 345 -2240
2019-10-18 19:32:22 GMT 58.675461 38.027580 16,850 8 345 -3072
2019-10-18 19:32:11 GMT 58.658752 38.023407 17,375 4 343 -2752
2019-10-18 19:32:00 GMT 58.641449 38.021378 17,850 0 343 -1984
2019-10-18 19:31:51 GMT 58.624741 38.021290 18,200 0 344 -1920
2019-10-18 19:31:40 GMT 58.608570 38.021301 18,525 0 346 -1984
2019-10-18 19:31:29 GMT 58.591763 38.021301 18,875 0 348 -1984
2019-10-18 19:31:19 GMT 58.567245 38.021378 19,375 0 351 -1984
2019-10-18 19:31:03 GMT 58.549713 38.021465 19,725 0 353 -1984
2019-10-18 19:30:54 GMT 58.533325 38.021557 20,075 0 355 -1984
2019-10-18 19:30:43 GMT 58.516071 38.021576 20,400 0 358 -1984
2019-10-18 19:30:33 GMT 58.498379 38.021667 20,750 0 360 -1984
2019-10-18 19:30:22 GMT 58.481110 38.021667 21,100 0 362 -1984
2019-10-18 19:30:10 GMT 58.460678 38.021732 21,525 0 363 -2048
2019-10-18 19:30:07 GMT 58.456238 38.021820 21,600 0 366 -2048
2019-10-18 19:29:58 GMT 58.441086 38.021820 21,900 0 368 -1984
2019-10-18 19:29:46 GMT 58.419708 38.021942 22,325 0 371 -1984
2019-10-18 19:29:35 GMT 58.401363 38.021942 22,675 0 373 -1856
2019-10-18 19:29:26 GMT 58.386700 38.021942 22,925 0 374 -1792
2019-10-18 19:29:15 GMT 58.367008 38.021942 23,250 0 374 -1280
2019-10-18 19:29:05 GMT 58.332504 38.021999 23,650 0 378 -1216
2019-10-18 19:28:55 GMT 58.321335 38.022087 23,775 0 379 -1216
2019-10-18 19:28:42 GMT 58.308563 38.022087 23,925 0 382 -1216
2019-10-18 19:28:33 GMT 58.293594 38.022175 24,100 0 384 -1216
2019-10-18 19:28:22 GMT 58.274872 38.022263 24,325 0 385 -1216
2019-10-18 19:28:12 GMT 58.255611 38.022217 24,525 0 385 -1216
2019-10-18 19:27:59 GMT 58.234314 38.022263 24,775 0 384 -1216
2019-10-18 19:27:47 GMT 58.213154 38.022400 25,025 0 385 -1216
2019-10-18 19:27:37 GMT 58.193089 38.022400 25,250 0 385 -1216
2019-10-18 19:27:24 GMT 58.172421 38.022491 25,475 0 386 -1152
2019-10-18 19:27:12 GMT 58.149307 38.022530 25,725 0 388 -1152
2019-10-18 19:27:01 GMT 58.131317 38.022617 26,375 0 396 -1152
2019-10-18 19:26:50 GMT 58.110626 38.022617 26,150 0 393 -1152
2019-10-18 19:26:37 GMT 58.086960 38.022617 26,400 0 395 -1152
2019-10-18 19:26:26 GMT 58.066727 38.022617 26,600 0 397 -1216
2019-10-18 19:26:17 GMT 58.049103 38.022675 26,800 0 397 -1344
2019-10-18 19:26:06 GMT 58.029053 38.022709 27,000 0 397 -128
2019-10-18 19:25:55 GMT 58.008545 38.022797 27,000 0 396 0
2019-10-18 19:25:44 GMT 57.987514 38.022858 27,000 0 396 0
2019-10-18 19:25:31 GMT 57.963730 38.022858 27,000 0 396 0
2019-10-18 19:25:21 GMT 57.948875 38.022949 27,000 0 396 0
2019-10-18 19:25:08 GMT 57.923904 38.022972 27,000 0 397 0
2019-10-18 19:24:58 GMT 57.906830 38.023060 27,000 0 397 0
2019-10-18 19:24:24 GMT 57.842331 38.023327 27,000 0 398 -64
2019-10-18 19:24:17 GMT 57.829605 38.023415 27,000 0 398 0
2019-10-18 19:23:59 GMT 57.798340 38.023594 27,000 0 398 -64
2019-10-18 19:23:51 GMT 57.783051 38.023682 27,000 0 398 0
2019-10-18 19:23:39 GMT 57.761673 38.023769 27,000 0 397 0
2019-10-18 19:23:33 GMT 57.750458 38.023769 27,000 0 397 0
2019-10-18 19:23:23 GMT 57.731480 38.023773 27,000 0 397 64
2019-10-18 19:22:57 GMT 57.684311 38.023083 27,000 0 396 0
2019-10-18 19:22:52 GMT 57.674652 38.022739 27,000 1 396 0
2019-10-18 19:22:46 GMT 57.662659 38.022308 27,000 1 396 -64
2019-10-18 19:22:35 GMT 57.641785 38.021538 27,000 1 396 0
2019-10-18 19:22:29 GMT 57.632137 38.021202 27,000 1 396 0
2019-10-18 19:22:22 GMT 57.619995 38.020847 27,000 1 396 0
2019-10-18 19:22:13 GMT 57.603790 38.020248 27,000 1 396 64
2019-10-18 19:22:07 GMT 57.590984 38.019783 27,000 1 396 0
2019-10-18 19:21:58 GMT 57.576412 38.019341 27,000 1 397 0
2019-10-18 19:21:45 GMT 57.553619 38.018532 27,000 1 397 0
2019-10-18 19:21:37 GMT 57.536728 38.018017 27,000 1 397 64
2019-10-18 19:21:25 GMT 57.515579 38.017330 27,000 1 397 0
2019-10-18 19:21:15 GMT 57.497360 38.016727 27,000 1 397 0
2019-10-18 19:21:04 GMT 57.476807 38.016045 27,000 1 397 -64
2019-10-18 19:20:53 GMT 57.454742 38.015270 27,000 1 397 0
2019-10-18 19:20:43 GMT 57.439682 38.014668 27,000 1 397 0
2019-10-18 19:20:40 GMT 57.433868 38.014500 27,000 1 397 0
2019-10-18 19:20:36 GMT 57.424141 38.014114 27,000 1 397 0
2019-10-18 19:20:30 GMT 57.415192 38.013725 27,000 1 397 0
2019-10-18 19:20:26 GMT 57.406769 38.013294 27,000 1 397 0
2019-10-18 19:20:17 GMT 57.391228 38.012608 27,000 1 397 0
2019-10-18 19:20:14 GMT 57.385849 38.012352 27,000 1 397 0
2019-10-18 19:20:03 GMT 57.365997 38.011368 27,000 1 397 0
2019-10-18 19:19:58 GMT 57.354904 38.010895 27,000 1 397 0
2019-10-18 19:19:43 GMT 57.311050 38.008747 27,000 1 397 0
2019-10-18 19:19:34 GMT 57.311050 38.008747 27,000 1 397 64
2019-10-18 19:19:25 GMT 57.295212 38.007977 27,000 1 397 0
2019-10-18 19:19:13 GMT 57.274849 38.007027 27,000 1 397 0
2019-10-18 19:19:05 GMT 57.257622 38.006229 27,000 1 397 64
2019-10-18 19:18:53 GMT 57.237045 38.005165 27,000 1 397 0
2019-10-18 19:18:42 GMT 57.217915 38.004276 27,000 1 397 0
2019-10-18 19:18:31 GMT 57.197060 38.003216 27,000 1 396 -64
2019-10-18 19:18:21 GMT 57.179123 38.002396 27,000 1 396 0
2019-10-18 19:18:12 GMT 57.160236 38.001442 27,000 1 396 0
2019-10-18 19:18:01 GMT 57.141907 38.000591 27,000 1 396 0
2019-10-18 19:17:48 GMT 57.119247 37.999561 27,000 1 396 -64
2019-10-18 19:17:40 GMT 57.102676 37.998878 27,000 10 401 -64
2019-10-18 19:17:29 GMT 57.083588 37.998104 27,000 1 397 0
2019-10-18 19:17:19 GMT 57.064407 37.996986 27,000 4 398 -64
2019-10-18 19:17:10 GMT 57.048203 37.994759 27,025 7 400 64
2019-10-18 19:17:07 GMT 57.044647 37.994087 27,000 6 399 64
2019-10-18 19:17:02 GMT 57.033894 37.991787 27,000 7 400 64
2019-10-18 19:16:59 GMT 57.029434 37.990723 27,000 8 401 0
2019-10-18 19:16:47 GMT 57.005032 37.983013 27,000 11 403 -64
2019-10-18 19:16:33 GMT 56.981369 37.973728 27,000 12 403 0
2019-10-18 19:16:25 GMT 56.967045 37.968128 27,000 12 403 0
2019-10-18 19:16:14 GMT 56.927799 37.952713 27,000 12 402 0
2019-10-18 19:16:03 GMT 56.927799 37.952713 27,000 12 403 0
2019-10-18 19:15:57 GMT 56.914673 37.947575 27,000 12 403 0
2019-10-18 19:15:52 GMT 56.906616 37.944462 27,000 12 403 64
2019-10-18 19:15:46 GMT 56.896889 37.940575 27,000 12 403 0
2019-10-18 19:15:40 GMT 56.885880 37.936306 27,000 12 403 0
2019-10-18 19:15:36 GMT 56.877777 37.933128 27,000 12 404 0
2019-10-18 19:15:31 GMT 56.868587 37.929588 27,000 12 403 0
2019-10-18 19:15:26 GMT 56.856949 37.924976 27,000 12 403 0
2019-10-18 19:15:19 GMT 56.845264 37.920464 27,000 12 402 64
2019-10-18 19:15:14 GMT 56.836761 37.917168 27,000 12 402 0
2019-10-18 19:15:11 GMT 56.831314 37.915020 27,000 12 403 0
2019-10-18 19:15:04 GMT 56.820217 37.910717 27,000 12 403 0
2019-10-18 19:15:00 GMT 56.809978 37.906731 27,000 12 403 0
2019-10-18 19:14:54 GMT 56.801056 37.903259 27,000 12 403 0
2019-10-18 19:14:48 GMT 56.782650 37.896187 27,000 12 402 0
2019-10-18 19:14:44 GMT 56.782650 37.896187 27,000 12 403 64
2019-10-18 19:14:38 GMT 56.772308 37.892189 27,000 12 403 -64
2019-10-18 19:14:33 GMT 56.762493 37.888390 27,000 12 403 -64
2019-10-18 19:14:26 GMT 56.749554 37.883339 27,000 12 402 64
2019-10-18 19:14:15 GMT 56.730652 37.876076 27,000 11 401 64
2019-10-18 19:14:11 GMT 56.721992 37.872707 27,000 11 400 -64
2019-10-18 19:14:07 GMT 56.714916 37.870049 27,000 11 400 0
2019-10-18 19:14:03 GMT 56.709332 37.867836 27,000 11 400 0
2019-10-18 19:13:54 GMT 56.692478 37.861366 27,000 11 399 64
2019-10-18 19:13:42 GMT 56.670788 37.853039 27,025 344 389 -64
2019-10-18 19:13:33 GMT 56.652008 37.845669 27,025 12 400 192
2019-10-18 19:13:23 GMT 56.636478 37.839481 27,000 9 398 -64
2019-10-18 19:13:11 GMT 56.615067 37.833736 27,000 3 395 -64
2019-10-18 19:13:02 GMT 56.595932 37.833481 27,025 356 392 0
2019-10-18 19:12:50 GMT 56.577347 37.837498 27,000 350 391 128
2019-10-18 19:12:41 GMT 56.561005 37.844822 27,025 343 389 0
2019-10-18 19:12:34 GMT 56.548866 37.851849 27,025 343 390 64
2019-10-18 19:12:30 GMT 56.542488 37.855453 27,025 343 390 64
2019-10-18 19:12:22 GMT 56.529034 37.863178 27,000 343 390 64
2019-10-18 19:12:19 GMT 56.524426 37.865837 27,000 343 390 64
2019-10-18 19:12:16 GMT 56.517609 37.869789 27,000 343 390 64
2019-10-18 19:12:09 GMT 56.505844 37.876530 27,000 343 390 64
2019-10-18 19:12:05 GMT 56.498821 37.880516 27,000 343 389 128
2019-10-18 19:11:58 GMT 56.487415 37.887123 26,975 343 389 320
2019-10-18 19:11:48 GMT 56.469910 37.897171 26,850 343 387 896
2019-10-18 19:11:37 GMT 56.452103 37.907658 26,700 342 385 1152
2019-10-18 19:11:27 GMT 56.433197 37.918312 26,475 346 383 1344
2019-10-18 19:11:19 GMT 56.419498 37.923691 26,300 352 383 1536
2019-10-18 19:11:15 GMT 56.414978 37.924973 26,225 352 383 1536
2019-10-18 19:11:08 GMT 56.401016 37.927635 25,975 358 387 1536
2019-10-18 19:11:04 GMT 56.394871 37.928150 25,950 359 387 1472
2019-10-18 19:10:58 GMT 56.382908 37.927979 25,775 3 390 1216
2019-10-18 19:10:55 GMT 56.377304 37.927303 25,725 5 390 1344
2019-10-18 19:10:48 GMT 56.363914 37.924633 25,600 7 390 1472
2019-10-18 19:10:44 GMT 56.358444 37.923389 25,475 7 388 1664
2019-10-18 19:10:37 GMT 56.346130 37.920601 25,325 7 386 1664
2019-10-18 19:10:33 GMT 56.338989 37.919064 25,175 7 385 1728
2019-10-18 19:10:26 GMT 56.326717 37.916306 25,025 7 384 1792
2019-10-18 19:10:23 GMT 56.321045 37.914986 24,875 7 383 1792
2019-10-18 19:10:18 GMT 56.311543 37.912872 24,725 7 380 1856
2019-10-18 19:10:12 GMT 56.302917 37.910904 24,550 7 379 1984
2019-10-18 19:10:07 GMT 56.293991 37.908924 23,925 7 376 2240
2019-10-18 19:10:01 GMT 56.284012 37.906662 24,200 7 377 2240
2019-10-18 19:09:57 GMT 56.276871 37.905079 24,025 7 376 2240
2019-10-18 19:09:53 GMT 56.267784 37.903004 23,850 7 375 2176
2019-10-18 19:09:50 GMT 56.264477 37.902229 23,775 7 375 2112
2019-10-18 19:09:45 GMT 56.255722 37.900253 23,650 7 375 2176
2019-10-18 19:09:40 GMT 56.245903 37.898026 23,375 7 374 2176
2019-10-18 19:09:36 GMT 56.238457 37.896397 23,225 7 372 2176
2019-10-18 19:09:30 GMT 56.229721 37.894424 22,950 7 371 2176
2019-10-18 19:09:26 GMT 56.221619 37.892593 22,875 7 371 2176
2019-10-18 19:09:18 GMT 56.209919 37.889957 22,625 6 369 2176
2019-10-18 19:09:13 GMT 56.199738 37.887684 22,400 6 369 2240
2019-10-18 19:09:09 GMT 56.194557 37.886608 22,275 6 367 2176
2019-10-18 19:09:05 GMT 56.185989 37.884808 22,100 6 366 2176
2019-10-18 19:08:58 GMT 56.176895 37.882938 21,900 7 366 2048
2019-10-18 19:08:54 GMT 56.168953 37.880604 21,575 13 366 2176
2019-10-18 19:08:47 GMT 56.156662 37.875118 21,450 17 366 2176
2019-10-18 19:08:43 GMT 56.151123 37.871845 21,325 21 367 2240
2019-10-18 19:08:38 GMT 56.143341 37.866211 21,150 24 368 2240
2019-10-18 19:08:33 GMT 56.133945 37.857857 20,925 29 369 2304
2019-10-18 19:08:28 GMT 56.127148 37.850559 20,750 33 370 2240
2019-10-18 19:08:22 GMT 56.119858 37.841324 20,550 38 371 2496
2019-10-18 19:08:17 GMT 56.113266 37.831589 20,325 40 372 2688
2019-10-18 19:08:12 GMT 56.106384 37.821033 20,100 40 371 2752
2019-10-18 19:08:07 GMT 56.099636 37.810562 19,850 40 370 2816
2019-10-18 19:08:04 GMT 56.096329 37.805454 19,650 40 370 2752
2019-10-18 19:07:54 GMT 56.079300 37.779236 19,200 40 369 2816
2019-10-18 19:07:51 GMT 56.068817 37.763088 18,950 40 368 2816
2019-10-18 19:07:43 GMT 56.062958 37.754017 18,625 40 367 2624
2019-10-18 19:07:38 GMT 56.062958 37.754017 18,550 40 366 2560
2019-10-18 19:07:32 GMT 56.055084 37.741898 18,275 40 365 2496
2019-10-18 19:07:28 GMT 56.049591 37.733459 18,100 40 363 2496
2019-10-18 19:07:25 GMT 56.045635 37.727306 17,975 40 363 2560
2019-10-18 19:07:18 GMT 56.037506 37.714897 17,775 40 358 2688
2019-10-18 19:07:13 GMT 56.031281 37.705330 17,500 40 360 2688
2019-10-18 19:07:10 GMT 56.027016 37.698811 17,325 40 355 3072
2019-10-18 19:07:03 GMT 56.019012 37.686436 17,050 40 357 2816
2019-10-18 19:06:59 GMT 56.013142 37.677525 16,825 40 355 2944
2019-10-18 19:06:53 GMT 56.006241 37.666878 16,550 40 354 3264
2019-10-18 19:06:50 GMT 56.002029 37.660465 16,375 40 354 3264
2019-10-18 19:06:47 GMT 55.998341 37.654697 16,200 40 355 3264
2019-10-18 19:06:40 GMT 55.988846 37.640160 15,800 40 354 2944
2019-10-18 19:06:35 GMT 55.983627 37.632210 15,600 40 354 2624
2019-10-18 19:06:32 GMT 55.979416 37.625759 15,450 40 353 2304
2019-10-18 19:06:28 GMT 55.969391 37.610447 15,250 40 349 1152
2019-10-18 19:06:24 GMT 55.969391 37.610447 15,200 40 346 832
2019-10-18 19:06:21 GMT 55.967194 37.607143 15,175 40 342 704
2019-10-18 19:06:18 GMT 55.963211 37.601040 15,125 40 341 704
2019-10-18 19:06:14 GMT 55.957558 37.592552 15,075 40 333 896
2019-10-18 19:06:11 GMT 55.955292 37.589054 13,975 46 319 2880
2019-10-18 19:06:07 GMT 55.950623 37.581654 14,975 43 325 1856
2019-10-18 19:06:03 GMT 55.945084 37.572124 14,800 45 320 2688
2019-10-18 19:06:00 GMT 55.941174 37.564919 14,650 46 319 2880
2019-10-18 19:05:54 GMT 55.937077 37.556850 14,350 50 317 2816
2019-10-18 19:05:51 GMT 55.933319 37.548939 14,250 51 317 2816
2019-10-18 19:05:48 GMT 55.931583 37.545090 14,075 52 316 2816
2019-10-18 19:05:45 GMT 55.928139 37.537106 13,975 53 316 2880
2019-10-18 19:05:40 GMT 55.924183 37.527149 13,700 55 314 3008
2019-10-18 19:05:37 GMT 55.921829 37.521141 13,625 55 314 3008
2019-10-18 19:05:32 GMT 55.917385 37.509644 13,125 55 312 3264
2019-10-18 19:05:28 GMT 55.914078 37.501144 13,050 55 312 3264
2019-10-18 19:05:25 GMT 55.908875 37.487766 12,625 55 310 2752
2019-10-18 19:05:21 GMT 55.905468 37.479088 12,100 54 304 2432
2019-10-18 19:05:17 GMT 55.905468 37.479088 12,575 54 310 2688
2019-10-18 19:05:14 GMT 55.902969 37.472702 12,450 54 309 2368
2019-10-18 19:05:08 GMT 55.897751 37.459469 12,150 54 303 2432
2019-10-18 19:05:05 GMT 55.894573 37.451534 12,000 54 302 2560
2019-10-18 19:05:02 GMT 55.892120 37.445400 11,900 54 300 2880
2019-10-18 19:04:57 GMT 55.888893 37.437202 11,725 54 298 3392
2019-10-18 19:04:54 GMT 55.884193 37.425442 11,225 54 298 3520
2019-10-18 19:04:48 GMT 55.880981 37.417374 11,125 54 299 3328
2019-10-18 19:04:44 GMT 55.876282 37.405617 10,775 54 299 3136
2019-10-18 19:04:36 GMT 55.871887 37.394547 10,500 54 297 3008
2019-10-18 19:04:31 GMT 55.868225 37.385273 10,250 54 295 3328
2019-10-18 19:04:28 GMT 55.866318 37.380466 9,350 55 294 3200
2019-10-18 19:04:25 GMT 55.863190 37.372574 9,900 55 294 3328
2019-10-18 19:04:20 GMT 55.859985 37.364243 9,450 56 293 2944
2019-10-18 19:04:15 GMT 55.855728 37.353100 9,375 56 293 2880
2019-10-18 19:04:12 GMT 55.853561 37.347336 9,225 56 292 2816
2019-10-18 19:04:08 GMT 55.850304 37.338409 9,025 57 291 2752
2019-10-18 19:04:05 GMT 55.844696 37.321556 8,650 60 289 2048
2019-10-18 19:03:59 GMT 55.844696 37.321556 8,675 64 288 1664
2019-10-18 19:03:56 GMT 55.842995 37.314808 8,600 72 288 1024
2019-10-18 19:03:53 GMT 55.841782 37.308369 8,525 75 285 1024
2019-10-18 19:03:50 GMT 55.841034 37.302662 8,500 79 283 1280
2019-10-18 19:03:47 GMT 55.840393 37.294754 8,425 87 278 1920
2019-10-18 19:03:43 GMT 55.840202 37.285194 8,300 94 275 2112
2019-10-18 19:03:40 GMT 55.841217 37.270203 8,175 99 274 2240
2019-10-18 19:03:36 GMT 55.841217 37.270203 8,075 104 272 2368
2019-10-18 19:03:32 GMT 55.842529 37.262280 7,925 109 272 2432
2019-10-18 19:03:28 GMT 55.845703 37.249893 7,675 118 268 2688
2019-10-18 19:03:24 GMT 55.847763 37.244152 7,525 123 267 2688
2019-10-18 19:03:19 GMT 55.850830 37.237244 7,250 133 265 2624
2019-10-18 19:03:15 GMT 55.854492 37.230949 7,150 142 262 2432
2019-10-18 19:03:08 GMT 55.861660 37.221420 6,875 145 257 1600
2019-10-18 19:03:05 GMT 55.864174 37.218418 6,800 146 255 1408
2019-10-18 19:03:01 GMT 55.868786 37.213097 6,150 157 238 1792
2019-10-18 19:02:58 GMT 55.870739 37.211037 6,625 150 245 1728
2019-10-18 19:02:54 GMT 55.874634 37.207199 6,375 156 239 1792
2019-10-18 19:02:51 GMT 55.878296 37.204037 6,400 157 238 1792
2019-10-18 19:02:48 GMT 55.881725 37.201679 6,300 162 235 1728
2019-10-18 19:02:45 GMT 55.885494 37.200050 6,200 171 231 1728
2019-10-18 19:02:38 GMT 55.891781 37.199364 6,025 185 225 1536
2019-10-18 19:02:33 GMT 55.897831 37.201164 5,875 200 216 1664
2019-10-18 19:02:27 GMT 55.901882 37.203915 5,750 207 212 1728
2019-10-18 19:02:24 GMT 55.905418 37.207603 5,500 234 200 1472
2019-10-18 19:02:17 GMT 55.909653 37.214603 5,475 232 202 1600
2019-10-18 19:02:13 GMT 55.912170 37.220566 5,350 234 198 1472
2019-10-18 19:02:09 GMT 55.914917 37.227173 5,225 234 193 1472
2019-10-18 19:02:02 GMT 55.917847 37.234413 4,875 234 185 1408
2019-10-18 19:01:59 GMT 55.919403 37.238243 5,025 235 180 1472
2019-10-18 19:01:56 GMT 55.920689 37.241421 4,975 235 179 1472
2019-10-18 19:01:52 GMT 55.922783 37.246742 4,850 236 174 1472
2019-10-18 19:01:49 GMT 55.923996 37.249832 4,800 236 171 1472
2019-10-18 19:01:46 GMT 55.925392 37.253437 4,725 236 167 1408
2019-10-18 19:01:42 GMT 55.927254 37.258327 4,600 236 166 1408
2019-10-18 19:01:39 GMT 55.928558 37.261677 4,550 236 166 1408
2019-10-18 19:01:35 GMT 55.929977 37.265373 4,475 236 165 1408
2019-10-18 19:01:32 GMT 55.933025 37.273350 4,325 236 163 1408
2019-10-18 19:01:25 GMT 55.934422 37.276955 4,225 236 163 1408
2019-10-18 19:01:21 GMT 55.936611 37.282791 4,100 236 161 1408
2019-10-18 19:01:18 GMT 55.937210 37.284351 4,075 236 161 1472
2019-10-18 19:01:15 GMT 55.938705 37.288197 3,975 236 161 1408
2019-10-18 19:01:09 GMT 55.941452 37.295406 3,825 236 159 1408
2019-10-18 19:01:04 GMT 55.943024 37.299500 3,750 236 160 1408
2019-10-18 19:00:59 GMT 55.945404 37.305740 3,600 236 159 1408
2019-10-18 19:00:56 GMT 55.946732 37.309071 3,525 236 159 1408
2019-10-18 19:00:48 GMT 55.952087 37.322971 0 236 158 1600
2019-10-18 19:00:43 GMT 55.952087 37.322971 0 236 158 1600
2019-10-18 19:00:40 GMT 55.953735 37.327297 0 235 159 1856
2019-10-18 19:00:34 GMT 55.956345 37.333790 0 234 160 1856
2019-10-18 19:00:26 GMT 55.959702 37.342186 0 238 159 2048
2019-10-18 19:00:23 GMT 55.960510 37.344528 0 240 158 1984
2019-10-18 19:00:13 GMT 55.963749 37.356434 0 249 156 2688
2019-10-18 19:00:03 GMT 55.966415 37.368996 0 250 153 2944
2019-10-18 18:59:57 GMT 55.968498 37.378922 0 251 153 3008
2019-10-18 18:59:51 GMT 55.969151 37.382610 0 253 153 2816
2019-10-18 18:59:37 GMT 55.971725 37.399460 0 256 151 1152

Making use of Plane Finder data

You are free to use the raw flight data, aircraft information and images provided in this report for your own purposes provided the data is correctly attributed to Plane Finder. We ask that you please credit Plane Finder and link to planefinder.net in close proximity to the content.

Optionally one of the following logos (no smaller then 150x24px) can be used and must link to planefinder.net

Embedding the Plane Finder map

You are welcome to embed the Plane Finder playback map on your website to offer visitors a more interactive experience. We suggest using the following HTML code:

<iframe src="//planefinder.net/data/report/D2154-RA-89118-7700-squawk-2019-10-18/map" width="800" height="600" seamless="seamless"></iframe>

Where our data comes from

Plane Finder has a global network of data feeds and antenna radars that receive data broadcast directly from aircraft. The primary technologies used are ADS-B and MLAT. We also show feeds from the FAA and a FLARM glider feed.

Click here to find out more about the Plane Finder network.

How we collect our data